sensor_id;sensor_type;location;lat;lon;timestamp;pressure;altitude;pressure_sealevel;temperature;humidity
141;BME280;65;48.778;9.160;2022-08-03T00:00:00;98563.09;;;20.85;58.87
141;BME280;65;48.778;9.160;2022-08-03T00:02:25;98565.78;;;20.85;59.50
141;BME280;65;48.778;9.160;2022-08-03T00:04:51;98563.53;;;20.80;58.60
141;BME280;65;48.778;9.160;2022-08-03T00:07:16;98561.00;;;20.79;59.09
141;BME280;65;48.778;9.160;2022-08-03T00:09:43;98569.78;;;20.81;59.94
141;BME280;65;48.778;9.160;2022-08-03T00:12:08;98551.94;;;20.80;60.42
141;BME280;65;48.778;9.160;2022-08-03T00:14:34;98557.19;;;20.81;59.87
141;BME280;65;48.778;9.160;2022-08-03T00:16:59;98556.88;;;20.84;60.35
141;BME280;65;48.778;9.160;2022-08-03T00:19:25;98555.03;;;20.85;60.91
141;BME280;65;48.778;9.160;2022-08-03T00:21:50;98557.19;;;20.81;60.05
141;BME280;65;48.778;9.160;2022-08-03T00:24:16;98556.63;;;20.78;60.62
141;BME280;65;48.778;9.160;2022-08-03T00:26:41;98555.94;;;20.76;60.46
141;BME280;65;48.778;9.160;2022-08-03T00:29:07;98552.56;;;20.74;61.28
141;BME280;65;48.778;9.160;2022-08-03T00:31:32;98556.09;;;20.74;60.65
141;BME280;65;48.778;9.160;2022-08-03T00:33:57;98547.34;;;20.72;59.91
141;BME280;65;48.778;9.160;2022-08-03T00:36:23;98548.19;;;20.73;59.56
141;BME280;65;48.778;9.160;2022-08-03T00:38:48;98555.53;;;20.71;59.79
141;BME280;65;48.778;9.160;2022-08-03T00:41:13;98552.00;;;20.70;59.92
141;BME280;65;48.778;9.160;2022-08-03T00:43:39;98547.63;;;20.69;59.49
141;BME280;65;48.778;9.160;2022-08-03T00:46:04;98547.09;;;20.66;59.59
141;BME280;65;48.778;9.160;2022-08-03T00:48:30;98550.09;;;20.63;59.17
141;BME280;65;48.778;9.160;2022-08-03T00:50:56;98551.09;;;20.62;59.02
141;BME280;65;48.778;9.160;2022-08-03T00:53:23;98544.72;;;20.63;59.64
141;BME280;65;48.778;9.160;2022-08-03T00:55:48;98539.66;;;20.60;59.03
141;BME280;65;48.778;9.160;2022-08-03T00:58:14;98548.41;;;20.62;59.82
141;BME280;65;48.778;9.160;2022-08-03T01:00:39;98545.88;;;20.60;60.97
141;BME280;65;48.778;9.160;2022-08-03T01:03:07;98545.31;;;20.57;61.32
141;BME280;65;48.778;9.160;2022-08-03T01:05:52;98543.94;;;20.52;61.50
141;BME280;65;48.778;9.160;2022-08-03T01:08:41;98544.25;;;20.49;62.10
141;BME280;65;48.778;9.160;2022-08-03T01:14:09;98537.34;;;20.37;63.32
141;BME280;65;48.778;9.160;2022-08-03T01:16:47;98534.81;;;20.36;63.03
141;BME280;65;48.778;9.160;2022-08-03T01:25:13;98527.25;;;20.21;63.74
141;BME280;65;48.778;9.160;2022-08-03T01:30:24;98534.34;;;20.13;63.95
141;BME280;65;48.778;9.160;2022-08-03T01:35:47;98526.16;;;20.14;64.88
141;BME280;65;48.778;9.160;2022-08-03T01:38:26;98522.91;;;20.11;63.97
141;BME280;65;48.778;9.160;2022-08-03T01:40:53;98522.63;;;20.14;63.69
141;BME280;65;48.778;9.160;2022-08-03T01:43:23;98519.50;;;20.18;63.48
141;BME280;65;48.778;9.160;2022-08-03T01:45:50;98512.44;;;20.17;63.25
141;BME280;65;48.778;9.160;2022-08-03T01:48:16;98517.66;;;20.19;63.41
141;BME280;65;48.778;9.160;2022-08-03T01:50:44;98518.94;;;20.15;63.38
141;BME280;65;48.778;9.160;2022-08-03T01:53:13;98512.47;;;20.08;64.87
141;BME280;65;48.778;9.160;2022-08-03T01:55:40;98511.63;;;20.07;64.15
141;BME280;65;48.778;9.160;2022-08-03T01:58:07;98512.94;;;20.03;64.37
141;BME280;65;48.778;9.160;2022-08-03T02:00:37;98513.38;;;19.99;64.75
141;BME280;65;48.778;9.160;2022-08-03T02:03:07;98515.38;;;19.97;65.02
141;BME280;65;48.778;9.160;2022-08-03T02:05:34;98515.66;;;19.94;65.82
141;BME280;65;48.778;9.160;2022-08-03T02:08:02;98515.97;;;19.90;65.05
141;BME280;65;48.778;9.160;2022-08-03T02:10:29;98507.50;;;19.85;66.11
141;BME280;65;48.778;9.160;2022-08-03T02:12:58;98508.66;;;19.83;65.68
141;BME280;65;48.778;9.160;2022-08-03T02:15:26;98508.94;;;19.80;65.47
141;BME280;65;48.778;9.160;2022-08-03T02:17:52;98513.75;;;19.76;65.90
141;BME280;65;48.778;9.160;2022-08-03T02:20:19;98509.69;;;19.72;66.09
141;BME280;65;48.778;9.160;2022-08-03T02:22:45;98511.66;;;19.70;66.17
141;BME280;65;48.778;9.160;2022-08-03T02:25:12;98510.97;;;19.68;66.28
141;BME280;65;48.778;9.160;2022-08-03T02:27:41;98510.38;;;19.65;66.75
141;BME280;65;48.778;9.160;2022-08-03T02:30:09;98521.41;;;19.62;67.10
141;BME280;65;48.778;9.160;2022-08-03T02:32:40;98523.38;;;19.59;66.89
141;BME280;65;48.778;9.160;2022-08-03T02:35:10;98514.63;;;19.57;67.34
141;BME280;65;48.778;9.160;2022-08-03T02:37:41;98521.00;;;19.56;67.26
141;BME280;65;48.778;9.160;2022-08-03T02:40:08;98516.63;;;19.55;67.18
141;BME280;65;48.778;9.160;2022-08-03T02:42:35;98512.41;;;19.53;67.71
141;BME280;65;48.778;9.160;2022-08-03T02:45:05;98517.75;;;19.53;67.50
141;BME280;65;48.778;9.160;2022-08-03T02:47:34;98514.34;;;19.51;68.43
141;BME280;65;48.778;9.160;2022-08-03T02:50:01;98510.97;;;19.49;68.25
141;BME280;65;48.778;9.160;2022-08-03T02:52:28;98509.72;;;19.53;67.96
141;BME280;65;48.778;9.160;2022-08-03T02:54:59;98507.16;;;19.51;68.07
141;BME280;65;48.778;9.160;2022-08-03T02:57:27;98511.13;;;19.47;68.10
141;BME280;65;48.778;9.160;2022-08-03T02:59:56;98517.31;;;19.48;67.95
141;BME280;65;48.778;9.160;2022-08-03T03:02:23;98512.66;;;19.50;68.09
141;BME280;65;48.778;9.160;2022-08-03T03:04:51;98508.59;;;19.55;67.51
141;BME280;65;48.778;9.160;2022-08-03T03:07:17;98507.16;;;19.51;67.85
141;BME280;65;48.778;9.160;2022-08-03T03:09:43;98507.44;;;19.48;68.30
141;BME280;65;48.778;9.160;2022-08-03T03:12:10;98506.88;;;19.45;68.49
141;BME280;65;48.778;9.160;2022-08-03T03:14:37;98509.56;;;19.45;68.66
141;BME280;65;48.778;9.160;2022-08-03T03:17:05;98510.56;;;19.44;68.48
141;BME280;65;48.778;9.160;2022-08-03T03:19:31;98505.47;;;19.41;68.60
141;BME280;65;48.778;9.160;2022-08-03T03:21:59;98507.59;;;19.37;69.41
141;BME280;65;48.778;9.160;2022-08-03T03:24:27;98506.78;;;19.37;69.39
141;BME280;65;48.778;9.160;2022-08-03T03:26:56;98509.03;;;19.32;69.38
141;BME280;65;48.778;9.160;2022-08-03T03:29:23;98510.88;;;19.31;70.05
141;BME280;65;48.778;9.160;2022-08-03T03:31:48;98503.25;;;19.26;70.51
141;BME280;65;48.778;9.160;2022-08-03T03:34:14;98503.41;;;19.25;70.62
141;BME280;65;48.778;9.160;2022-08-03T03:36:40;98509.06;;;19.22;71.31
141;BME280;65;48.778;9.160;2022-08-03T03:39:06;98515.53;;;19.19;71.45
141;BME280;65;48.778;9.160;2022-08-03T03:41:31;98510.47;;;19.16;71.84
141;BME280;65;48.778;9.160;2022-08-03T03:43:57;98511.47;;;19.15;71.52
141;BME280;65;48.778;9.160;2022-08-03T03:46:23;98506.81;;;19.17;71.81
141;BME280;65;48.778;9.160;2022-08-03T03:48:49;98508.78;;;19.15;71.38
141;BME280;65;48.778;9.160;2022-08-03T03:51:15;98506.94;;;19.16;71.55
141;BME280;65;48.778;9.160;2022-08-03T03:53:53;98505.41;;;19.13;71.38
141;BME280;65;48.778;9.160;2022-08-03T03:56:19;98499.50;;;19.10;72.09
141;BME280;65;48.778;9.160;2022-08-03T03:58:44;98502.41;;;19.07;72.21
141;BME280;65;48.778;9.160;2022-08-03T04:01:11;98498.63;;;19.09;71.72
141;BME280;65;48.778;9.160;2022-08-03T04:03:37;98494.97;;;19.10;71.44
141;BME280;65;48.778;9.160;2022-08-03T04:06:02;98502.88;;;19.12;71.29
141;BME280;65;48.778;9.160;2022-08-03T04:08:46;98502.56;;;19.15;72.00
141;BME280;65;48.778;9.160;2022-08-03T04:11:44;98504.28;;;19.16;71.81
141;BME280;65;48.778;9.160;2022-08-03T04:14:13;98505.81;;;19.18;71.65
141;BME280;65;48.778;9.160;2022-08-03T04:16:44;98509.06;;;19.22;71.62
141;BME280;65;48.778;9.160;2022-08-03T04:19:22;98515.97;;;19.24;71.53
141;BME280;65;48.778;9.160;2022-08-03T04:21:51;98515.81;;;19.26;71.46
141;BME280;65;48.778;9.160;2022-08-03T04:24:19;98517.22;;;19.30;71.37
141;BME280;65;48.778;9.160;2022-08-03T04:26:46;98510.16;;;19.39;70.59
141;BME280;65;48.778;9.160;2022-08-03T04:29:13;98511.66;;;19.51;69.88
141;BME280;65;48.778;9.160;2022-08-03T04:31:40;98513.78;;;19.57;69.95
141;BME280;65;48.778;9.160;2022-08-03T04:34:07;98511.53;;;19.62;69.86
141;BME280;65;48.778;9.160;2022-08-03T04:36:45;98516.34;;;19.68;69.93
141;BME280;65;48.778;9.160;2022-08-03T04:39:38;98522.66;;;19.77;69.17
141;BME280;65;48.778;9.160;2022-08-03T04:42:07;98520.47;;;19.90;68.70
141;BME280;65;48.778;9.160;2022-08-03T04:44:41;98521.53;;;20.07;68.38
141;BME280;65;48.778;9.160;2022-08-03T04:47:09;98523.69;;;20.31;67.76
141;BME280;65;48.778;9.160;2022-08-03T04:49:38;98533.13;;;20.62;66.66
141;BME280;65;48.778;9.160;2022-08-03T04:52:06;98533.78;;;21.27;63.87
141;BME280;65;48.778;9.160;2022-08-03T04:54:38;98529.44;;;21.78;61.69
141;BME280;65;48.778;9.160;2022-08-03T04:57:04;98530.22;;;22.22;60.06
141;BME280;65;48.778;9.160;2022-08-03T04:59:29;98529.34;;;22.64;58.63
141;BME280;65;48.778;9.160;2022-08-03T05:01:55;98532.44;;;22.35;59.78
141;BME280;65;48.778;9.160;2022-08-03T05:04:20;98537.44;;;22.22;60.22
141;BME280;65;48.778;9.160;2022-08-03T05:06:47;98538.44;;;21.95;62.08
141;BME280;65;48.778;9.160;2022-08-03T05:09:12;98533.66;;;21.81;62.01
141;BME280;65;48.778;9.160;2022-08-03T05:11:37;98534.56;;;21.63;62.98
141;BME280;65;48.778;9.160;2022-08-03T05:14:03;98535.34;;;21.56;62.74
141;BME280;65;48.778;9.160;2022-08-03T05:16:28;98530.91;;;21.72;62.03
141;BME280;65;48.778;9.160;2022-08-03T05:18:53;98530.31;;;22.04;62.17
141;BME280;65;48.778;9.160;2022-08-03T05:21:19;98530.13;;;22.48;60.84
141;BME280;65;48.778;9.160;2022-08-03T05:23:44;98536.28;;;22.75;59.58
141;BME280;65;48.778;9.160;2022-08-03T05:26:10;98533.91;;;22.71;58.99
141;BME280;65;48.778;9.160;2022-08-03T05:28:38;98535.09;;;22.69;59.58
141;BME280;65;48.778;9.160;2022-08-03T05:31:04;98544.84;;;22.70;59.19
141;BME280;65;48.778;9.160;2022-08-03T05:33:29;98537.97;;;22.25;60.06
141;BME280;65;48.778;9.160;2022-08-03T05:35:55;98537.03;;;22.51;60.00
141;BME280;65;48.778;9.160;2022-08-03T05:38:20;98539.63;;;22.60;59.01
141;BME280;65;48.778;9.160;2022-08-03T05:40:45;98530.78;;;22.84;57.77
141;BME280;65;48.778;9.160;2022-08-03T05:43:11;98544.25;;;22.92;57.80
141;BME280;65;48.778;9.160;2022-08-03T05:45:36;98536.69;;;23.12;57.96
141;BME280;65;48.778;9.160;2022-08-03T05:48:04;98542.09;;;23.45;56.97
141;BME280;65;48.778;9.160;2022-08-03T05:50:29;98537.56;;;24.25;54.19
141;BME280;65;48.778;9.160;2022-08-03T05:52:55;98543.19;;;25.39;51.18
141;BME280;65;48.778;9.160;2022-08-03T05:55:22;98536.16;;;25.30;51.74
141;BME280;65;48.778;9.160;2022-08-03T05:57:47;98538.75;;;25.23;51.21
141;BME280;65;48.778;9.160;2022-08-03T06:00:13;98535.84;;;24.71;52.25
141;BME280;65;48.778;9.160;2022-08-03T06:02:38;98528.19;;;24.52;52.13
141;BME280;65;48.778;9.160;2022-08-03T06:05:16;98530.81;;;24.21;53.99
141;BME280;65;48.778;9.160;2022-08-03T06:07:41;98538.19;;;23.96;53.37
141;BME280;65;48.778;9.160;2022-08-03T06:10:07;98532.16;;;23.78;54.86
141;BME280;65;48.778;9.160;2022-08-03T06:12:45;98530.78;;;23.82;55.02
141;BME280;65;48.778;9.160;2022-08-03T06:15:14;98529.59;;;23.84;55.01
141;BME280;65;48.778;9.160;2022-08-03T06:17:47;98535.66;;;23.94;54.60
141;BME280;65;48.778;9.160;2022-08-03T06:20:14;98539.25;;;23.79;54.86
141;BME280;65;48.778;9.160;2022-08-03T06:22:42;98538.38;;;23.86;55.32
141;BME280;65;48.778;9.160;2022-08-03T06:25:08;98535.59;;;24.11;54.17
141;BME280;65;48.778;9.160;2022-08-03T06:27:33;98541.34;;;24.08;54.94
141;BME280;65;48.778;9.160;2022-08-03T06:29:59;98537.59;;;24.17;54.26
141;BME280;65;48.778;9.160;2022-08-03T06:32:24;98533.19;;;24.24;54.17
141;BME280;65;48.778;9.160;2022-08-03T06:34:51;98531.66;;;24.38;54.01
141;BME280;65;48.778;9.160;2022-08-03T06:37:16;98531.88;;;24.59;52.76
141;BME280;65;48.778;9.160;2022-08-03T06:39:42;98534.34;;;24.69;52.80
141;BME280;65;48.778;9.160;2022-08-03T06:42:07;98532.59;;;24.53;53.03
141;BME280;65;48.778;9.160;2022-08-03T06:44:34;98534.53;;;24.67;53.48
141;BME280;65;48.778;9.160;2022-08-03T06:47:01;98536.28;;;24.83;52.11
141;BME280;65;48.778;9.160;2022-08-03T06:49:27;98539.34;;;25.34;51.21
141;BME280;65;48.778;9.160;2022-08-03T06:51:55;98540.03;;;27.34;45.70
141;BME280;65;48.778;9.160;2022-08-03T06:54:21;98539.06;;;30.27;38.83
141;BME280;65;48.778;9.160;2022-08-03T06:56:48;98536.13;;;32.49;34.72
141;BME280;65;48.778;9.160;2022-08-03T06:59:14;98543.56;;;34.03;32.30
141;BME280;65;48.778;9.160;2022-08-03T07:01:40;98547.03;;;33.87;31.36
141;BME280;65;48.778;9.160;2022-08-03T07:04:05;98543.22;;;34.11;31.06
141;BME280;65;48.778;9.160;2022-08-03T07:06:30;98540.94;;;36.02;28.67
141;BME280;65;48.778;9.160;2022-08-03T07:08:56;98540.09;;;36.79;27.23
141;BME280;65;48.778;9.160;2022-08-03T07:11:22;98541.03;;;36.68;26.99
141;BME280;65;48.778;9.160;2022-08-03T07:13:47;98533.94;;;36.94;26.66
141;BME280;65;48.778;9.160;2022-08-03T07:16:13;98541.00;;;37.33;26.06
141;BME280;65;48.778;9.160;2022-08-03T07:18:38;98545.28;;;37.51;25.90
141;BME280;65;48.778;9.160;2022-08-03T07:21:04;98530.88;;;37.17;26.26
141;BME280;65;48.778;9.160;2022-08-03T07:23:29;98538.59;;;37.42;25.76
141;BME280;65;48.778;9.160;2022-08-03T07:25:55;98528.94;;;38.09;25.17
141;BME280;65;48.778;9.160;2022-08-03T07:28:20;98536.06;;;37.99;25.00
141;BME280;65;48.778;9.160;2022-08-03T07:30:46;98539.22;;;37.76;25.14
141;BME280;65;48.778;9.160;2022-08-03T07:33:31;98544.38;;;38.42;25.03
141;BME280;65;48.778;9.160;2022-08-03T07:36:02;98531.41;;;39.10;24.17
141;BME280;65;48.778;9.160;2022-08-03T07:38:28;98536.69;;;39.16;23.69
141;BME280;65;48.778;9.160;2022-08-03T07:40:54;98539.50;;;39.37;23.16
141;BME280;65;48.778;9.160;2022-08-03T07:43:19;98536.16;;;39.35;23.12
141;BME280;65;48.778;9.160;2022-08-03T07:45:45;98533.41;;;39.40;23.41
141;BME280;65;48.778;9.160;2022-08-03T07:48:10;98534.94;;;38.90;24.04
141;BME280;65;48.778;9.160;2022-08-03T07:50:35;98530.69;;;39.50;23.32
141;BME280;65;48.778;9.160;2022-08-03T07:53:01;98526.72;;;39.10;23.06
141;BME280;65;48.778;9.160;2022-08-03T07:55:26;98525.63;;;40.23;22.29
141;BME280;65;48.778;9.160;2022-08-03T07:58:06;98528.94;;;40.35;22.29
141;BME280;65;48.778;9.160;2022-08-03T08:00:33;98524.50;;;40.39;21.54
141;BME280;65;48.778;9.160;2022-08-03T08:02:59;98526.19;;;41.05;21.16
141;BME280;65;48.778;9.160;2022-08-03T08:05:24;98524.56;;;41.43;20.63
141;BME280;65;48.778;9.160;2022-08-03T08:07:50;98522.16;;;40.72;21.32
141;BME280;65;48.778;9.160;2022-08-03T08:10:15;98514.53;;;40.49;22.38
141;BME280;65;48.778;9.160;2022-08-03T08:12:41;98516.13;;;41.24;20.46
141;BME280;65;48.778;9.160;2022-08-03T08:15:07;98515.75;;;41.36;20.90
141;BME280;65;48.778;9.160;2022-08-03T08:18:00;98517.22;;;40.64;21.71
141;BME280;65;48.778;9.160;2022-08-03T08:20:31;98521.44;;;41.89;19.94
141;BME280;65;48.778;9.160;2022-08-03T08:23:02;98519.22;;;41.13;20.77
141;BME280;65;48.778;9.160;2022-08-03T08:25:29;98517.09;;;41.78;19.37
141;BME280;65;48.778;9.160;2022-08-03T08:27:55;98517.47;;;41.61;20.54
141;BME280;65;48.778;9.160;2022-08-03T08:30:22;98519.41;;;41.60;20.26
141;BME280;65;48.778;9.160;2022-08-03T08:32:49;98519.63;;;42.32;18.58
141;BME280;65;48.778;9.160;2022-08-03T08:35:16;98518.16;;;41.82;19.03
141;BME280;65;48.778;9.160;2022-08-03T08:37:48;98517.84;;;40.35;20.30
141;BME280;65;48.778;9.160;2022-08-03T08:40:14;98513.31;;;41.68;19.52
141;BME280;65;48.778;9.160;2022-08-03T08:42:40;98506.75;;;43.45;17.04
141;BME280;65;48.778;9.160;2022-08-03T08:45:09;98510.94;;;43.24;17.04
141;BME280;65;48.778;9.160;2022-08-03T08:47:40;98517.56;;;42.90;17.22
141;BME280;65;48.778;9.160;2022-08-03T08:50:08;98511.38;;;43.69;16.74
141;BME280;65;48.778;9.160;2022-08-03T08:52:35;98504.03;;;43.40;17.16
141;BME280;65;48.778;9.160;2022-08-03T08:55:05;98509.03;;;44.36;16.24
141;BME280;65;48.778;9.160;2022-08-03T08:57:35;98506.78;;;44.79;16.47
141;BME280;65;48.778;9.160;2022-08-03T09:00:06;98508.00;;;44.32;16.49
141;BME280;65;48.778;9.160;2022-08-03T09:02:33;98511.50;;;44.24;16.05
141;BME280;65;48.778;9.160;2022-08-03T09:04:59;98516.56;;;43.19;17.35
141;BME280;65;48.778;9.160;2022-08-03T09:07:26;98512.06;;;43.93;16.39
141;BME280;65;48.778;9.160;2022-08-03T09:09:52;98509.56;;;44.10;16.42
141;BME280;65;48.778;9.160;2022-08-03T09:12:18;98508.53;;;44.75;15.74
141;BME280;65;48.778;9.160;2022-08-03T09:14:44;98502.44;;;44.32;15.84
141;BME280;65;48.778;9.160;2022-08-03T09:17:11;98502.16;;;44.61;15.37
141;BME280;65;48.778;9.160;2022-08-03T09:19:36;98494.94;;;44.60;15.61
141;BME280;65;48.778;9.160;2022-08-03T09:22:13;98495.94;;;45.50;14.45
141;BME280;65;48.778;9.160;2022-08-03T09:25:00;98491.53;;;45.13;15.31
141;BME280;65;48.778;9.160;2022-08-03T09:27:25;98497.94;;;42.77;16.19
141;BME280;65;48.778;9.160;2022-08-03T09:29:52;98498.72;;;42.82;16.68
141;BME280;65;48.778;9.160;2022-08-03T09:32:20;98492.59;;;42.14;17.27
141;BME280;65;48.778;9.160;2022-08-03T09:34:51;98483.16;;;43.89;14.92
141;BME280;65;48.778;9.160;2022-08-03T09:37:19;98497.56;;;43.07;16.23
141;BME280;65;48.778;9.160;2022-08-03T09:39:45;98491.81;;;43.55;15.70
141;BME280;65;48.778;9.160;2022-08-03T09:42:16;98489.88;;;42.80;15.94
141;BME280;65;48.778;9.160;2022-08-03T09:44:45;98489.38;;;44.00;15.18
141;BME280;65;48.778;9.160;2022-08-03T09:47:13;98491.94;;;44.56;14.62
141;BME280;65;48.778;9.160;2022-08-03T09:49:40;98490.81;;;45.07;14.50
141;BME280;65;48.778;9.160;2022-08-03T09:52:18;98487.81;;;45.84;13.83
141;BME280;65;48.778;9.160;2022-08-03T09:54:55;98487.22;;;44.93;14.16
141;BME280;65;48.778;9.160;2022-08-03T09:57:25;98483.66;;;45.15;14.21
141;BME280;65;48.778;9.160;2022-08-03T09:59:51;98482.69;;;44.83;14.56
141;BME280;65;48.778;9.160;2022-08-03T10:02:25;98485.19;;;46.41;13.07
141;BME280;65;48.778;9.160;2022-08-03T10:04:52;98477.06;;;45.69;14.02
141;BME280;65;48.778;9.160;2022-08-03T10:07:22;98479.97;;;45.64;13.59
141;BME280;65;48.778;9.160;2022-08-03T10:10:07;98470.81;;;45.27;14.01
141;BME280;65;48.778;9.160;2022-08-03T10:12:53;98472.63;;;43.86;14.99
141;BME280;65;48.778;9.160;2022-08-03T10:15:18;98465.09;;;44.96;13.95
141;BME280;65;48.778;9.160;2022-08-03T10:17:44;98465.97;;;45.86;13.77
141;BME280;65;48.778;9.160;2022-08-03T10:20:10;98464.25;;;45.09;13.48
141;BME280;65;48.778;9.160;2022-08-03T10:22:38;98462.25;;;44.74;14.02
141;BME280;65;48.778;9.160;2022-08-03T10:25:07;98453.75;;;44.93;14.14
141;BME280;65;48.778;9.160;2022-08-03T10:27:37;98450.06;;;45.42;13.78
141;BME280;65;48.778;9.160;2022-08-03T10:30:06;98455.16;;;45.93;13.72
141;BME280;65;48.778;9.160;2022-08-03T10:32:54;98454.00;;;45.94;12.95
141;BME280;65;48.778;9.160;2022-08-03T10:35:22;98455.34;;;46.85;12.62
141;BME280;65;48.778;9.160;2022-08-03T10:38:01;98455.94;;;46.16;13.15
141;BME280;65;48.778;9.160;2022-08-03T10:40:29;98454.19;;;46.86;12.55
141;BME280;65;48.778;9.160;2022-08-03T10:43:03;98448.03;;;46.67;12.71
141;BME280;65;48.778;9.160;2022-08-03T10:45:32;98438.19;;;46.78;12.77
141;BME280;65;48.778;9.160;2022-08-03T10:48:00;98444.56;;;43.82;14.40
141;BME280;65;48.778;9.160;2022-08-03T10:50:26;98440.75;;;43.92;15.04
141;BME280;65;48.778;9.160;2022-08-03T10:53:00;98441.31;;;44.49;14.42
141;BME280;65;48.778;9.160;2022-08-03T11:01:00;98434.88;;;45.57;13.36
141;BME280;65;48.778;9.160;2022-08-03T11:03:26;98431.34;;;43.23;15.47
141;BME280;65;48.778;9.160;2022-08-03T11:05:51;98423.19;;;45.55;13.06
141;BME280;65;48.778;9.160;2022-08-03T11:11:01;98420.38;;;44.88;14.26
141;BME280;65;48.778;9.160;2022-08-03T11:13:29;98423.06;;;45.82;13.16
141;BME280;65;48.778;9.160;2022-08-03T11:15:59;98433.50;;;45.99;12.87
141;BME280;65;48.778;9.160;2022-08-03T11:18:25;98426.03;;;44.05;14.59
141;BME280;65;48.778;9.160;2022-08-03T11:20:59;98421.72;;;46.11;13.10
141;BME280;65;48.778;9.160;2022-08-03T11:23:45;98423.00;;;45.51;13.72
141;BME280;65;48.778;9.160;2022-08-03T11:26:13;98416.09;;;42.64;15.47
141;BME280;65;48.778;9.160;2022-08-03T11:28:40;98407.94;;;45.30;13.92
141;BME280;65;48.778;9.160;2022-08-03T11:34:03;98409.63;;;45.17;13.30
141;BME280;65;48.778;9.160;2022-08-03T11:36:28;98416.03;;;44.18;14.27
141;BME280;65;48.778;9.160;2022-08-03T11:39:13;98404.31;;;40.74;17.44
141;BME280;65;48.778;9.160;2022-08-03T11:41:38;98405.81;;;43.53;14.94
141;BME280;65;48.778;9.160;2022-08-03T11:44:04;98403.13;;;42.36;16.40
141;BME280;65;48.778;9.160;2022-08-03T11:46:36;98396.56;;;44.40;14.70
141;BME280;65;48.778;9.160;2022-08-03T11:49:05;98402.19;;;44.54;14.17
141;BME280;65;48.778;9.160;2022-08-03T11:51:31;98392.56;;;42.75;15.44
141;BME280;65;48.778;9.160;2022-08-03T11:53:59;98391.28;;;45.02;14.20
141;BME280;65;48.778;9.160;2022-08-03T11:56:26;98396.69;;;46.54;12.89
141;BME280;65;48.778;9.160;2022-08-03T11:58:54;98384.88;;;47.00;12.64
141;BME280;65;48.778;9.160;2022-08-03T12:01:21;98390.13;;;46.76;12.46
141;BME280;65;48.778;9.160;2022-08-03T12:03:48;98384.22;;;46.86;12.73
141;BME280;65;48.778;9.160;2022-08-03T12:06:15;98380.56;;;42.99;15.45
141;BME280;65;48.778;9.160;2022-08-03T12:08:42;98379.44;;;45.19;13.33
141;BME280;65;48.778;9.160;2022-08-03T12:11:10;98380.06;;;45.16;13.31
141;BME280;65;48.778;9.160;2022-08-03T12:16:01;98367.13;;;44.62;13.76
141;BME280;65;48.778;9.160;2022-08-03T12:18:27;98372.75;;;44.84;14.04
141;BME280;65;48.778;9.160;2022-08-03T12:21:03;98376.78;;;45.14;13.64
141;BME280;65;48.778;9.160;2022-08-03T12:23:29;98370.31;;;45.27;13.58
141;BME280;65;48.778;9.160;2022-08-03T12:26:01;98368.78;;;43.53;14.97
141;BME280;65;48.778;9.160;2022-08-03T12:28:26;98364.16;;;44.81;14.23
141;BME280;65;48.778;9.160;2022-08-03T12:30:53;98362.81;;;43.60;15.20
141;BME280;65;48.778;9.160;2022-08-03T12:33:24;98369.34;;;44.24;14.62
141;BME280;65;48.778;9.160;2022-08-03T12:36:03;98366.31;;;42.86;16.26
141;BME280;65;48.778;9.160;2022-08-03T12:38:33;98372.13;;;44.24;15.15
141;BME280;65;48.778;9.160;2022-08-03T12:41:04;98363.88;;;42.99;16.21
141;BME280;65;48.778;9.160;2022-08-03T12:43:30;98362.13;;;42.84;16.23
141;BME280;65;48.778;9.160;2022-08-03T12:46:13;98350.19;;;42.46;16.96
141;BME280;65;48.778;9.160;2022-08-03T12:49:14;98355.00;;;42.16;16.54
141;BME280;65;48.778;9.160;2022-08-03T12:54:07;98350.97;;;40.93;18.32
141;BME280;65;48.778;9.160;2022-08-03T12:56:33;98345.81;;;40.81;18.30
141;BME280;65;48.778;9.160;2022-08-03T12:59:00;98333.63;;;39.63;19.09
141;BME280;65;48.778;9.160;2022-08-03T13:01:25;98336.59;;;38.29;21.10
141;BME280;65;48.778;9.160;2022-08-03T13:03:53;98342.75;;;38.62;21.09
141;BME280;65;48.778;9.160;2022-08-03T13:06:25;98334.50;;;39.18;19.68
141;BME280;65;48.778;9.160;2022-08-03T13:09:05;98327.41;;;40.02;19.30
141;BME280;65;48.778;9.160;2022-08-03T13:11:32;98338.44;;;40.61;19.32
141;BME280;65;48.778;9.160;2022-08-03T13:13:59;98334.94;;;40.45;18.57
141;BME280;65;48.778;9.160;2022-08-03T13:16:25;98341.81;;;40.58;18.57
141;BME280;65;48.778;9.160;2022-08-03T13:18:51;98329.69;;;39.74;19.50
141;BME280;65;48.778;9.160;2022-08-03T13:21:18;98330.91;;;38.97;19.96
141;BME280;65;48.778;9.160;2022-08-03T13:23:44;98328.44;;;37.92;21.71
141;BME280;65;48.778;9.160;2022-08-03T13:26:10;98336.44;;;38.87;20.75
141;BME280;65;48.778;9.160;2022-08-03T13:28:37;98330.34;;;38.90;20.37
141;BME280;65;48.778;9.160;2022-08-03T13:31:03;98326.19;;;38.98;20.23
141;BME280;65;48.778;9.160;2022-08-03T13:33:28;98328.13;;;39.22;20.47
141;BME280;65;48.778;9.160;2022-08-03T13:35:54;98319.25;;;38.59;19.99
141;BME280;65;48.778;9.160;2022-08-03T13:38:19;98318.75;;;38.88;20.04
141;BME280;65;48.778;9.160;2022-08-03T13:40:45;98318.41;;;39.61;19.07
141;BME280;65;48.778;9.160;2022-08-03T13:43:11;98319.88;;;39.07;19.73
141;BME280;65;48.778;9.160;2022-08-03T13:45:37;98321.22;;;39.35;19.74
141;BME280;65;48.778;9.160;2022-08-03T13:48:03;98320.50;;;38.11;21.04
141;BME280;65;48.778;9.160;2022-08-03T13:50:28;98319.47;;;37.65;21.20
141;BME280;65;48.778;9.160;2022-08-03T13:52:55;98314.53;;;38.40;20.88
141;BME280;65;48.778;9.160;2022-08-03T13:55:22;98310.38;;;38.27;21.52
141;BME280;65;48.778;9.160;2022-08-03T13:57:47;98307.19;;;37.98;20.93
141;BME280;65;48.778;9.160;2022-08-03T14:00:14;98297.66;;;38.16;21.30
141;BME280;65;48.778;9.160;2022-08-03T14:02:40;98294.91;;;38.31;21.18
141;BME280;65;48.778;9.160;2022-08-03T14:05:06;98296.00;;;38.35;20.95
141;BME280;65;48.778;9.160;2022-08-03T14:07:32;98302.91;;;38.22;20.99
141;BME280;65;48.778;9.160;2022-08-03T14:09:58;98297.75;;;38.87;20.54
141;BME280;65;48.778;9.160;2022-08-03T14:12:23;98278.94;;;39.09;20.23
141;BME280;65;48.778;9.160;2022-08-03T14:14:48;98285.53;;;39.39;19.58
141;BME280;65;48.778;9.160;2022-08-03T14:17:14;98279.97;;;39.44;20.13
141;BME280;65;48.778;9.160;2022-08-03T14:19:39;98280.31;;;39.12;20.74
141;BME280;65;48.778;9.160;2022-08-03T14:22:05;98278.41;;;38.82;20.52
141;BME280;65;48.778;9.160;2022-08-03T14:24:30;98275.59;;;38.46;21.15
141;BME280;65;48.778;9.160;2022-08-03T14:26:56;98275.00;;;38.24;20.90
141;BME280;65;48.778;9.160;2022-08-03T14:29:33;98280.38;;;37.78;21.58
141;BME280;65;48.778;9.160;2022-08-03T14:32:02;98271.47;;;37.66;22.04